sensor_id;sensor_type;location;lat;lon;timestamp;P1;durP1;ratioP1;P2;durP2;ratioP2
28531;SDS011;15738;44.860;10.066;2022-08-19T00:00:23;8.10;;;5.03;;
28531;SDS011;15738;44.860;10.066;2022-08-19T00:03:09;10.13;;;5.00;;
28531;SDS011;15738;44.860;10.066;2022-08-19T00:05:55;8.90;;;5.43;;
28531;SDS011;15738;44.860;10.066;2022-08-19T00:08:41;12.60;;;6.30;;
28531;SDS011;15738;44.860;10.066;2022-08-19T00:11:28;9.68;;;5.68;;
28531;SDS011;15738;44.860;10.066;2022-08-19T00:14:14;15.20;;;6.07;;
28531;SDS011;15738;44.860;10.066;2022-08-19T00:17:02;15.80;;;6.53;;
28531;SDS011;15738;44.860;10.066;2022-08-19T00:19:49;18.30;;;7.35;;
28531;SDS011;15738;44.860;10.066;2022-08-19T00:22:35;10.38;;;7.03;;
28531;SDS011;15738;44.860;10.066;2022-08-19T00:25:21;16.75;;;7.82;;
28531;SDS011;15738;44.860;10.066;2022-08-19T00:28:14;9.80;;;7.50;;
28531;SDS011;15738;44.860;10.066;2022-08-19T00:31:01;13.85;;;7.60;;
28531;SDS011;15738;44.860;10.066;2022-08-19T00:33:50;13.95;;;8.23;;
28531;SDS011;15738;44.860;10.066;2022-08-19T00:36:36;15.88;;;9.27;;
28531;SDS011;15738;44.860;10.066;2022-08-19T00:39:23;16.67;;;9.52;;
28531;SDS011;15738;44.860;10.066;2022-08-19T00:42:08;17.27;;;11.35;;
28531;SDS011;15738;44.860;10.066;2022-08-19T00:44:54;17.88;;;10.93;;
28531;SDS011;15738;44.860;10.066;2022-08-19T00:47:40;16.75;;;10.88;;
28531;SDS011;15738;44.860;10.066;2022-08-19T00:50:26;16.13;;;10.82;;
28531;SDS011;15738;44.860;10.066;2022-08-19T00:53:14;21.23;;;11.60;;
28531;SDS011;15738;44.860;10.066;2022-08-19T00:56:02;17.30;;;10.45;;
28531;SDS011;15738;44.860;10.066;2022-08-19T00:58:51;16.65;;;11.15;;
28531;SDS011;15738;44.860;10.066;2022-08-19T01:01:39;21.92;;;12.32;;
28531;SDS011;15738;44.860;10.066;2022-08-19T01:04:26;18.42;;;11.43;;
28531;SDS011;15738;44.860;10.066;2022-08-19T01:07:13;22.30;;;11.98;;
28531;SDS011;15738;44.860;10.066;2022-08-19T01:10:01;22.80;;;13.00;;
28531;SDS011;15738;44.860;10.066;2022-08-19T01:12:48;17.75;;;12.32;;
28531;SDS011;15738;44.860;10.066;2022-08-19T01:15:38;22.58;;;13.63;;
28531;SDS011;15738;44.860;10.066;2022-08-19T01:21:22;22.15;;;13.35;;
28531;SDS011;15738;44.860;10.066;2022-08-19T01:24:13;25.15;;;15.25;;
28531;SDS011;15738;44.860;10.066;2022-08-19T01:27:00;28.40;;;16.80;;
28531;SDS011;15738;44.860;10.066;2022-08-19T01:29:55;19.75;;;14.70;;
28531;SDS011;15738;44.860;10.066;2022-08-19T01:32:41;29.73;;;17.25;;
28531;SDS011;15738;44.860;10.066;2022-08-19T01:35:29;26.42;;;17.05;;
28531;SDS011;15738;44.860;10.066;2022-08-19T01:38:21;28.38;;;17.85;;
28531;SDS011;15738;44.860;10.066;2022-08-19T01:41:12;28.77;;;18.70;;
28531;SDS011;15738;44.860;10.066;2022-08-19T01:43:58;29.88;;;18.33;;
28531;SDS011;15738;44.860;10.066;2022-08-19T01:49:48;28.00;;;18.23;;
28531;SDS011;15738;44.860;10.066;2022-08-19T01:52:35;30.02;;;18.25;;
28531;SDS011;15738;44.860;10.066;2022-08-19T01:55:22;26.63;;;18.40;;
28531;SDS011;15738;44.860;10.066;2022-08-19T01:58:13;31.08;;;19.75;;
28531;SDS011;15738;44.860;10.066;2022-08-19T02:01:05;33.00;;;21.40;;
28531;SDS011;15738;44.860;10.066;2022-08-19T02:03:52;30.27;;;21.13;;
28531;SDS011;15738;44.860;10.066;2022-08-19T02:06:42;38.10;;;22.38;;
28531;SDS011;15738;44.860;10.066;2022-08-19T02:09:27;31.77;;;21.08;;
28531;SDS011;15738;44.860;10.066;2022-08-19T02:12:13;33.90;;;21.63;;
28531;SDS011;15738;44.860;10.066;2022-08-19T02:15:01;35.25;;;20.52;;
28531;SDS011;15738;44.860;10.066;2022-08-19T02:17:48;28.17;;;20.15;;
28531;SDS011;15738;44.860;10.066;2022-08-19T02:20:34;33.50;;;22.23;;
28531;SDS011;15738;44.860;10.066;2022-08-19T02:23:22;37.53;;;22.55;;
28531;SDS011;15738;44.860;10.066;2022-08-19T02:26:08;39.10;;;24.20;;
28531;SDS011;15738;44.860;10.066;2022-08-19T02:28:54;40.03;;;23.88;;
28531;SDS011;15738;44.860;10.066;2022-08-19T02:31:41;41.83;;;23.63;;
28531;SDS011;15738;44.860;10.066;2022-08-19T02:34:27;30.30;;;19.52;;
28531;SDS011;15738;44.860;10.066;2022-08-19T02:37:13;29.95;;;20.35;;
28531;SDS011;15738;44.860;10.066;2022-08-19T02:40:19;33.58;;;21.27;;
28531;SDS011;15738;44.860;10.066;2022-08-19T02:43:07;31.50;;;19.50;;
28531;SDS011;15738;44.860;10.066;2022-08-19T02:45:53;31.92;;;18.30;;
28531;SDS011;15738;44.860;10.066;2022-08-19T02:48:39;25.40;;;16.20;;
28531;SDS011;15738;44.860;10.066;2022-08-19T02:51:27;17.27;;;10.27;;
28531;SDS011;15738;44.860;10.066;2022-08-19T02:54:18;6.47;;;3.00;;
28531;SDS011;15738;44.860;10.066;2022-08-19T02:57:04;4.20;;;0.90;;
28531;SDS011;15738;44.860;10.066;2022-08-19T02:59:51;5.95;;;0.80;;
28531;SDS011;15738;44.860;10.066;2022-08-19T03:02:38;2.13;;;0.82;;
28531;SDS011;15738;44.860;10.066;2022-08-19T03:05:24;4.88;;;1.23;;
28531;SDS011;15738;44.860;10.066;2022-08-19T03:08:29;4.38;;;1.00;;
28531;SDS011;15738;44.860;10.066;2022-08-19T03:11:20;2.50;;;0.70;;
28531;SDS011;15738;44.860;10.066;2022-08-19T03:14:07;3.80;;;0.90;;
28531;SDS011;15738;44.860;10.066;2022-08-19T03:16:54;2.40;;;0.73;;
28531;SDS011;15738;44.860;10.066;2022-08-19T03:19:39;3.80;;;0.80;;
28531;SDS011;15738;44.860;10.066;2022-08-19T03:22:26;3.75;;;0.90;;
28531;SDS011;15738;44.860;10.066;2022-08-19T03:25:12;2.78;;;0.90;;
28531;SDS011;15738;44.860;10.066;2022-08-19T03:27:58;3.65;;;1.10;;
28531;SDS011;15738;44.860;10.066;2022-08-19T03:30:54;2.45;;;0.70;;
28531;SDS011;15738;44.860;10.066;2022-08-19T03:33:41;3.50;;;1.00;;
28531;SDS011;15738;44.860;10.066;2022-08-19T03:36:30;3.28;;;1.02;;
28531;SDS011;15738;44.860;10.066;2022-08-19T03:39:16;4.80;;;1.60;;
28531;SDS011;15738;44.860;10.066;2022-08-19T03:42:03;4.88;;;1.52;;
28531;SDS011;15738;44.860;10.066;2022-08-19T03:45:10;7.88;;;1.60;;
28531;SDS011;15738;44.860;10.066;2022-08-19T03:47:56;6.28;;;1.42;;
28531;SDS011;15738;44.860;10.066;2022-08-19T03:50:42;7.00;;;2.97;;
28531;SDS011;15738;44.860;10.066;2022-08-19T03:53:29;4.95;;;1.63;;
28531;SDS011;15738;44.860;10.066;2022-08-19T03:56:16;8.93;;;3.10;;
28531;SDS011;15738;44.860;10.066;2022-08-19T03:59:02;7.20;;;2.75;;
28531;SDS011;15738;44.860;10.066;2022-08-19T04:01:48;10.70;;;2.55;;
28531;SDS011;15738;44.860;10.066;2022-08-19T04:04:34;7.68;;;2.95;;
28531;SDS011;15738;44.860;10.066;2022-08-19T04:07:21;5.57;;;3.17;;
28531;SDS011;15738;44.860;10.066;2022-08-19T04:10:07;8.13;;;3.17;;
28531;SDS011;15738;44.860;10.066;2022-08-19T04:12:54;6.40;;;2.83;;
28531;SDS011;15738;44.860;10.066;2022-08-19T04:15:40;7.47;;;3.15;;
28531;SDS011;15738;44.860;10.066;2022-08-19T04:18:28;5.22;;;2.67;;
28531;SDS011;15738;44.860;10.066;2022-08-19T04:21:21;10.15;;;2.42;;
28531;SDS011;15738;44.860;10.066;2022-08-19T04:24:10;7.25;;;1.95;;
28531;SDS011;15738;44.860;10.066;2022-08-19T04:26:58;6.07;;;2.03;;
28531;SDS011;15738;44.860;10.066;2022-08-19T04:29:47;3.72;;;1.50;;
28531;SDS011;15738;44.860;10.066;2022-08-19T04:32:33;5.63;;;1.63;;
28531;SDS011;15738;44.860;10.066;2022-08-19T04:35:20;4.75;;;1.58;;
28531;SDS011;15738;44.860;10.066;2022-08-19T04:38:10;3.42;;;1.60;;
28531;SDS011;15738;44.860;10.066;2022-08-19T04:40:56;5.43;;;1.63;;
28531;SDS011;15738;44.860;10.066;2022-08-19T04:44:01;3.67;;;1.33;;
28531;SDS011;15738;44.860;10.066;2022-08-19T04:46:49;5.35;;;1.88;;
28531;SDS011;15738;44.860;10.066;2022-08-19T04:49:36;4.00;;;1.45;;
28531;SDS011;15738;44.860;10.066;2022-08-19T04:52:22;1.88;;;0.85;;
28531;SDS011;15738;44.860;10.066;2022-08-19T04:55:10;6.15;;;1.27;;
28531;SDS011;15738;44.860;10.066;2022-08-19T04:57:57;4.07;;;1.05;;
28531;SDS011;15738;44.860;10.066;2022-08-19T05:00:44;3.25;;;1.35;;
28531;SDS011;15738;44.860;10.066;2022-08-19T05:03:30;8.15;;;0.90;;
28531;SDS011;15738;44.860;10.066;2022-08-19T05:06:19;4.13;;;0.82;;
28531;SDS011;15738;44.860;10.066;2022-08-19T05:09:06;3.05;;;0.93;;
28531;SDS011;15738;44.860;10.066;2022-08-19T05:11:52;4.18;;;1.00;;
28531;SDS011;15738;44.860;10.066;2022-08-19T05:14:39;3.22;;;1.02;;
28531;SDS011;15738;44.860;10.066;2022-08-19T05:17:25;3.70;;;1.02;;
28531;SDS011;15738;44.860;10.066;2022-08-19T05:20:16;3.58;;;1.05;;
28531;SDS011;15738;44.860;10.066;2022-08-19T05:23:21;4.05;;;0.82;;
28531;SDS011;15738;44.860;10.066;2022-08-19T05:26:07;5.00;;;0.90;;
28531;SDS011;15738;44.860;10.066;2022-08-19T05:28:55;3.58;;;0.90;;
28531;SDS011;15738;44.860;10.066;2022-08-19T05:31:41;3.97;;;0.93;;
28531;SDS011;15738;44.860;10.066;2022-08-19T05:34:27;4.20;;;0.90;;
28531;SDS011;15738;44.860;10.066;2022-08-19T05:37:13;6.25;;;0.73;;
28531;SDS011;15738;44.860;10.066;2022-08-19T05:39:59;2.28;;;0.95;;
28531;SDS011;15738;44.860;10.066;2022-08-19T05:42:46;3.17;;;0.88;;
28531;SDS011;15738;44.860;10.066;2022-08-19T05:45:40;4.85;;;1.00;;
28531;SDS011;15738;44.860;10.066;2022-08-19T05:48:27;2.42;;;0.90;;
28531;SDS011;15738;44.860;10.066;2022-08-19T05:51:13;1.23;;;0.70;;
28531;SDS011;15738;44.860;10.066;2022-08-19T05:54:02;3.20;;;0.90;;
28531;SDS011;15738;44.860;10.066;2022-08-19T05:56:49;3.95;;;0.82;;
28531;SDS011;15738;44.860;10.066;2022-08-19T05:59:36;3.47;;;0.60;;
28531;SDS011;15738;44.860;10.066;2022-08-19T06:02:23;5.00;;;0.70;;
28531;SDS011;15738;44.860;10.066;2022-08-19T06:05:10;1.17;;;0.80;;
28531;SDS011;15738;44.860;10.066;2022-08-19T06:07:56;4.65;;;1.10;;
28531;SDS011;15738;44.860;10.066;2022-08-19T06:10:43;5.72;;;0.90;;
28531;SDS011;15738;44.860;10.066;2022-08-19T06:13:29;6.13;;;1.10;;
28531;SDS011;15738;44.860;10.066;2022-08-19T06:16:21;2.90;;;0.85;;
28531;SDS011;15738;44.860;10.066;2022-08-19T06:19:09;2.85;;;0.95;;
28531;SDS011;15738;44.860;10.066;2022-08-19T06:21:58;5.88;;;0.85;;
28531;SDS011;15738;44.860;10.066;2022-08-19T06:24:44;4.03;;;0.82;;
28531;SDS011;15738;44.860;10.066;2022-08-19T06:27:30;4.03;;;0.90;;
28531;SDS011;15738;44.860;10.066;2022-08-19T06:30:18;6.15;;;1.38;;
28531;SDS011;15738;44.860;10.066;2022-08-19T06:33:04;4.93;;;0.90;;
28531;SDS011;15738;44.860;10.066;2022-08-19T06:35:50;4.20;;;0.88;;
28531;SDS011;15738;44.860;10.066;2022-08-19T06:38:36;2.38;;;0.80;;
28531;SDS011;15738;44.860;10.066;2022-08-19T06:41:24;2.22;;;0.70;;
28531;SDS011;15738;44.860;10.066;2022-08-19T06:44:11;4.68;;;1.20;;
28531;SDS011;15738;44.860;10.066;2022-08-19T06:46:57;2.22;;;0.70;;
28531;SDS011;15738;44.860;10.066;2022-08-19T06:49:44;1.98;;;0.80;;
28531;SDS011;15738;44.860;10.066;2022-08-19T06:52:34;8.45;;;1.35;;
28531;SDS011;15738;44.860;10.066;2022-08-19T06:55:22;6.03;;;1.25;;
28531;SDS011;15738;44.860;10.066;2022-08-19T06:58:08;2.78;;;1.10;;
28531;SDS011;15738;44.860;10.066;2022-08-19T07:00:54;2.53;;;1.00;;
28531;SDS011;15738;44.860;10.066;2022-08-19T07:03:42;2.78;;;0.75;;
28531;SDS011;15738;44.860;10.066;2022-08-19T07:06:29;2.53;;;1.05;;
28531;SDS011;15738;44.860;10.066;2022-08-19T07:09:29;3.60;;;1.15;;
28531;SDS011;15738;44.860;10.066;2022-08-19T07:12:15;2.42;;;0.90;;
28531;SDS011;15738;44.860;10.066;2022-08-19T07:15:03;1.98;;;0.80;;
28531;SDS011;15738;44.860;10.066;2022-08-19T07:17:51;2.38;;;0.90;;
28531;SDS011;15738;44.860;10.066;2022-08-19T07:20:38;2.53;;;0.60;;
28531;SDS011;15738;44.860;10.066;2022-08-19T07:23:26;3.05;;;0.90;;
28531;SDS011;15738;44.860;10.066;2022-08-19T07:26:13;1.92;;;0.60;;
28531;SDS011;15738;44.860;10.066;2022-08-19T07:29:12;4.43;;;0.90;;
28531;SDS011;15738;44.860;10.066;2022-08-19T07:31:59;4.82;;;1.10;;
28531;SDS011;15738;44.860;10.066;2022-08-19T07:34:46;1.85;;;0.60;;
28531;SDS011;15738;44.860;10.066;2022-08-19T07:37:32;1.73;;;0.60;;
28531;SDS011;15738;44.860;10.066;2022-08-19T07:40:21;0.93;;;0.38;;
28531;SDS011;15738;44.860;10.066;2022-08-19T07:43:08;3.33;;;0.75;;
28531;SDS011;15738;44.860;10.066;2022-08-19T07:46:01;1.23;;;0.57;;
28531;SDS011;15738;44.860;10.066;2022-08-19T07:48:48;3.75;;;0.60;;
28531;SDS011;15738;44.860;10.066;2022-08-19T07:51:36;4.93;;;0.50;;
28531;SDS011;15738;44.860;10.066;2022-08-19T07:54:22;2.08;;;0.93;;
28531;SDS011;15738;44.860;10.066;2022-08-19T07:57:10;4.25;;;0.80;;
28531;SDS011;15738;44.860;10.066;2022-08-19T07:59:56;1.88;;;0.50;;
28531;SDS011;15738;44.860;10.066;2022-08-19T08:02:42;0.77;;;0.45;;
28531;SDS011;15738;44.860;10.066;2022-08-19T08:05:30;1.10;;;0.50;;
28531;SDS011;15738;44.860;10.066;2022-08-19T08:08:34;1.92;;;0.77;;
28531;SDS011;15738;44.860;10.066;2022-08-19T08:11:39;3.03;;;0.50;;
28531;SDS011;15738;44.860;10.066;2022-08-19T08:14:31;2.42;;;0.73;;
28531;SDS011;15738;44.860;10.066;2022-08-19T08:17:20;2.60;;;0.60;;
28531;SDS011;15738;44.860;10.066;2022-08-19T08:20:29;3.50;;;0.45;;
28531;SDS011;15738;44.860;10.066;2022-08-19T08:23:15;2.22;;;0.50;;
28531;SDS011;15738;44.860;10.066;2022-08-19T08:26:07;0.50;;;0.45;;
28531;SDS011;15738;44.860;10.066;2022-08-19T08:28:54;1.73;;;0.60;;
28531;SDS011;15738;44.860;10.066;2022-08-19T08:31:42;10.95;;;1.00;;
28531;SDS011;15738;44.860;10.066;2022-08-19T08:34:28;6.70;;;0.98;;
28531;SDS011;15738;44.860;10.066;2022-08-19T08:37:15;3.85;;;0.80;;
28531;SDS011;15738;44.860;10.066;2022-08-19T08:40:37;0.52;;;0.40;;
28531;SDS011;15738;44.860;10.066;2022-08-19T08:43:35;1.95;;;0.95;;
28531;SDS011;15738;44.860;10.066;2022-08-19T08:49:57;0.90;;;0.50;;
28531;SDS011;15738;44.860;10.066;2022-08-19T08:52:47;1.75;;;0.40;;
28531;SDS011;15738;44.860;10.066;2022-08-19T08:55:36;2.08;;;0.55;;
28531;SDS011;15738;44.860;10.066;2022-08-19T08:58:25;1.13;;;0.40;;
28531;SDS011;15738;44.860;10.066;2022-08-19T09:01:27;1.45;;;0.40;;
28531;SDS011;15738;44.860;10.066;2022-08-19T09:04:15;3.38;;;0.70;;
28531;SDS011;15738;44.860;10.066;2022-08-19T09:07:18;1.73;;;0.70;;
28531;SDS011;15738;44.860;10.066;2022-08-19T09:10:39;1.40;;;0.70;;
28531;SDS011;15738;44.860;10.066;2022-08-19T09:13:40;3.70;;;0.70;;
28531;SDS011;15738;44.860;10.066;2022-08-19T09:16:40;1.80;;;0.80;;
28531;SDS011;15738;44.860;10.066;2022-08-19T09:19:25;3.25;;;0.60;;
28531;SDS011;15738;44.860;10.066;2022-08-19T09:22:13;1.13;;;0.50;;
28531;SDS011;15738;44.860;10.066;2022-08-19T09:25:10;0.98;;;0.55;;
28531;SDS011;15738;44.860;10.066;2022-08-19T09:28:00;1.63;;;0.63;;
28531;SDS011;15738;44.860;10.066;2022-08-19T09:30:59;1.80;;;0.40;;
28531;SDS011;15738;44.860;10.066;2022-08-19T09:33:46;1.13;;;0.43;;
28531;SDS011;15738;44.860;10.066;2022-08-19T09:36:33;4.00;;;0.63;;
28531;SDS011;15738;44.860;10.066;2022-08-19T09:39:23;1.30;;;0.45;;
28531;SDS011;15738;44.860;10.066;2022-08-19T09:42:20;0.70;;;0.47;;
28531;SDS011;15738;44.860;10.066;2022-08-19T09:45:18;1.73;;;0.50;;
28531;SDS011;15738;44.860;10.066;2022-08-19T09:48:07;3.17;;;0.80;;
28531;SDS011;15738;44.860;10.066;2022-08-19T09:50:53;0.88;;;0.55;;
28531;SDS011;15738;44.860;10.066;2022-08-19T09:53:39;3.17;;;0.80;;
28531;SDS011;15738;44.860;10.066;2022-08-19T09:56:25;1.17;;;0.60;;
28531;SDS011;15738;44.860;10.066;2022-08-19T09:59:11;3.42;;;0.80;;
28531;SDS011;15738;44.860;10.066;2022-08-19T10:01:57;1.38;;;0.70;;
28531;SDS011;15738;44.860;10.066;2022-08-19T10:04:55;4.97;;;0.82;;
28531;SDS011;15738;44.860;10.066;2022-08-19T10:08:07;2.65;;;0.85;;
28531;SDS011;15738;44.860;10.066;2022-08-19T10:10:57;6.38;;;1.10;;
28531;SDS011;15738;44.860;10.066;2022-08-19T10:14:03;1.77;;;0.90;;
28531;SDS011;15738;44.860;10.066;2022-08-19T10:16:50;7.55;;;1.00;;
28531;SDS011;15738;44.860;10.066;2022-08-19T10:19:37;5.07;;;1.20;;
28531;SDS011;15738;44.860;10.066;2022-08-19T10:22:24;3.20;;;1.00;;
28531;SDS011;15738;44.860;10.066;2022-08-19T10:25:10;8.65;;;1.40;;
28531;SDS011;15738;44.860;10.066;2022-08-19T10:28:01;2.30;;;1.38;;
28531;SDS011;15738;44.860;10.066;2022-08-19T10:30:47;5.28;;;1.20;;
28531;SDS011;15738;44.860;10.066;2022-08-19T10:33:33;2.92;;;1.20;;
28531;SDS011;15738;44.860;10.066;2022-08-19T10:36:37;2.13;;;0.98;;
28531;SDS011;15738;44.860;10.066;2022-08-19T10:39:42;2.00;;;0.90;;
28531;SDS011;15738;44.860;10.066;2022-08-19T10:42:34;4.38;;;0.93;;
28531;SDS011;15738;44.860;10.066;2022-08-19T10:45:21;4.95;;;1.20;;
28531;SDS011;15738;44.860;10.066;2022-08-19T10:48:12;2.10;;;0.90;;
28531;SDS011;15738;44.860;10.066;2022-08-19T10:51:04;2.65;;;0.80;;
28531;SDS011;15738;44.860;10.066;2022-08-19T10:54:09;1.67;;;0.65;;
28531;SDS011;15738;44.860;10.066;2022-08-19T10:56:56;6.95;;;0.70;;
28531;SDS011;15738;44.860;10.066;2022-08-19T10:59:42;3.83;;;0.90;;
28531;SDS011;15738;44.860;10.066;2022-08-19T11:02:29;1.10;;;0.63;;
28531;SDS011;15738;44.860;10.066;2022-08-19T11:05:17;2.28;;;0.98;;
28531;SDS011;15738;44.860;10.066;2022-08-19T11:08:08;1.27;;;0.70;;
28531;SDS011;15738;44.860;10.066;2022-08-19T11:11:07;3.50;;;0.93;;
28531;SDS011;15738;44.860;10.066;2022-08-19T11:13:54;1.35;;;0.50;;
28531;SDS011;15738;44.860;10.066;2022-08-19T11:16:40;5.43;;;0.80;;
28531;SDS011;15738;44.860;10.066;2022-08-19T11:19:27;4.35;;;0.77;;
28531;SDS011;15738;44.860;10.066;2022-08-19T11:22:12;2.72;;;0.80;;
28531;SDS011;15738;44.860;10.066;2022-08-19T11:25:03;1.10;;;0.52;;
28531;SDS011;15738;44.860;10.066;2022-08-19T11:27:49;2.90;;;0.70;;
28531;SDS011;15738;44.860;10.066;2022-08-19T11:30:41;2.28;;;0.60;;
28531;SDS011;15738;44.860;10.066;2022-08-19T11:33:27;1.58;;;0.55;;
28531;SDS011;15738;44.860;10.066;2022-08-19T11:36:12;2.25;;;0.68;;
28531;SDS011;15738;44.860;10.066;2022-08-19T11:39:00;1.05;;;0.45;;
28531;SDS011;15738;44.860;10.066;2022-08-19T11:41:46;2.67;;;0.60;;
28531;SDS011;15738;44.860;10.066;2022-08-19T11:44:31;1.23;;;0.50;;
28531;SDS011;15738;44.860;10.066;2022-08-19T11:47:20;1.17;;;0.60;;
28531;SDS011;15738;44.860;10.066;2022-08-19T11:50:07;10.90;;;0.57;;
28531;SDS011;15738;44.860;10.066;2022-08-19T11:52:55;1.52;;;0.60;;
28531;SDS011;15738;44.860;10.066;2022-08-19T11:55:41;0.75;;;0.40;;
28531;SDS011;15738;44.860;10.066;2022-08-19T11:58:29;0.95;;;0.30;;
28531;SDS011;15738;44.860;10.066;2022-08-19T12:01:16;1.83;;;0.40;;
28531;SDS011;15738;44.860;10.066;2022-08-19T12:04:06;0.68;;;0.30;;
28531;SDS011;15738;44.860;10.066;2022-08-19T12:06:52;0.50;;;0.28;;
28531;SDS011;15738;44.860;10.066;2022-08-19T12:09:38;0.80;;;0.38;;
28531;SDS011;15738;44.860;10.066;2022-08-19T12:12:27;3.08;;;0.70;;
28531;SDS011;15738;44.860;10.066;2022-08-19T12:15:13;0.98;;;0.40;;
28531;SDS011;15738;44.860;10.066;2022-08-19T12:17:59;0.80;;;0.40;;
28531;SDS011;15738;44.860;10.066;2022-08-19T12:20:47;3.30;;;0.55;;
28531;SDS011;15738;44.860;10.066;2022-08-19T12:23:36;3.05;;;0.50;;
28531;SDS011;15738;44.860;10.066;2022-08-19T12:26:23;1.08;;;0.50;;
28531;SDS011;15738;44.860;10.066;2022-08-19T12:29:10;1.02;;;0.30;;
28531;SDS011;15738;44.860;10.066;2022-08-19T12:31:56;0.85;;;0.40;;
28531;SDS011;15738;44.860;10.066;2022-08-19T12:34:48;1.65;;;0.57;;
28531;SDS011;15738;44.860;10.066;2022-08-19T12:37:34;1.02;;;0.50;;
28531;SDS011;15738;44.860;10.066;2022-08-19T12:40:20;1.88;;;0.60;;
28531;SDS011;15738;44.860;10.066;2022-08-19T12:43:06;1.83;;;0.45;;
28531;SDS011;15738;44.860;10.066;2022-08-19T12:45:53;2.72;;;0.45;;
28531;SDS011;15738;44.860;10.066;2022-08-19T12:48:40;1.45;;;0.47;;
28531;SDS011;15738;44.860;10.066;2022-08-19T12:51:27;1.23;;;0.40;;
28531;SDS011;15738;44.860;10.066;2022-08-19T12:54:16;4.80;;;0.70;;
28531;SDS011;15738;44.860;10.066;2022-08-19T12:57:05;1.38;;;0.52;;
28531;SDS011;15738;44.860;10.066;2022-08-19T12:59:52;1.40;;;0.60;;
28531;SDS011;15738;44.860;10.066;2022-08-19T13:02:39;2.08;;;0.40;;
28531;SDS011;15738;44.860;10.066;2022-08-19T13:05:28;2.05;;;0.57;;
28531;SDS011;15738;44.860;10.066;2022-08-19T13:08:15;2.13;;;0.60;;
28531;SDS011;15738;44.860;10.066;2022-08-19T13:11:12;2.10;;;0.50;;
28531;SDS011;15738;44.860;10.066;2022-08-19T13:14:02;3.55;;;0.90;;
28531;SDS011;15738;44.860;10.066;2022-08-19T13:16:48;3.60;;;0.60;;
28531;SDS011;15738;44.860;10.066;2022-08-19T13:19:37;1.83;;;0.80;;
28531;SDS011;15738;44.860;10.066;2022-08-19T13:22:24;2.72;;;0.60;;
28531;SDS011;15738;44.860;10.066;2022-08-19T13:25:11;2.47;;;0.60;;
28531;SDS011;15738;44.860;10.066;2022-08-19T13:28:01;2.72;;;0.77;;
28531;SDS011;15738;44.860;10.066;2022-08-19T13:30:47;1.42;;;0.50;;
28531;SDS011;15738;44.860;10.066;2022-08-19T13:33:51;3.65;;;0.50;;
28531;SDS011;15738;44.860;10.066;2022-08-19T13:36:37;1.27;;;0.50;;
28531;SDS011;15738;44.860;10.066;2022-08-19T13:39:23;1.05;;;0.30;;
28531;SDS011;15738;44.860;10.066;2022-08-19T13:42:09;1.20;;;0.30;;
28531;SDS011;15738;44.860;10.066;2022-08-19T13:44:58;1.58;;;0.50;;
28531;SDS011;15738;44.860;10.066;2022-08-19T13:47:45;4.47;;;0.50;;
28531;SDS011;15738;44.860;10.066;2022-08-19T13:50:40;2.85;;;0.60;;
28531;SDS011;15738;44.860;10.066;2022-08-19T13:53:28;1.80;;;0.60;;
28531;SDS011;15738;44.860;10.066;2022-08-19T13:56:16;0.88;;;0.40;;
28531;SDS011;15738;44.860;10.066;2022-08-19T13:59:10;0.70;;;0.40;;
28531;SDS011;15738;44.860;10.066;2022-08-19T14:01:59;2.15;;;0.57;;
28531;SDS011;15738;44.860;10.066;2022-08-19T14:04:45;0.30;;;0.30;;
28531;SDS011;15738;44.860;10.066;2022-08-19T14:07:31;0.77;;;0.40;;
28531;SDS011;15738;44.860;10.066;2022-08-19T14:10:17;1.35;;;0.40;;
28531;SDS011;15738;44.860;10.066;2022-08-19T14:13:04;0.95;;;0.50;;
28531;SDS011;15738;44.860;10.066;2022-08-19T14:15:50;1.17;;;0.38;;
28531;SDS011;15738;44.860;10.066;2022-08-19T14:18:37;0.68;;;0.40;;
28531;SDS011;15738;44.860;10.066;2022-08-19T14:21:24;2.95;;;0.50;;
28531;SDS011;15738;44.860;10.066;2022-08-19T14:24:10;0.47;;;0.32;;
28531;SDS011;15738;44.860;10.066;2022-08-19T14:26:57;1.90;;;0.50;;
28531;SDS011;15738;44.860;10.066;2022-08-19T14:29:43;1.70;;;0.30;;
28531;SDS011;15738;44.860;10.066;2022-08-19T14:32:30;2.08;;;0.47;;
28531;SDS011;15738;44.860;10.066;2022-08-19T14:35:16;0.68;;;0.50;;
28531;SDS011;15738;44.860;10.066;2022-08-19T14:38:02;0.55;;;0.45;;
28531;SDS011;15738;44.860;10.066;2022-08-19T14:40:50;0.95;;;0.55;;
28531;SDS011;15738;44.860;10.066;2022-08-19T14:43:38;1.75;;;0.63;;
28531;SDS011;15738;44.860;10.066;2022-08-19T14:46:25;0.65;;;0.50;;
28531;SDS011;15738;44.860;10.066;2022-08-19T14:49:13;1.48;;;0.50;;
28531;SDS011;15738;44.860;10.066;2022-08-19T14:51:59;0.95;;;0.52;;
28531;SDS011;15738;44.860;10.066;2022-08-19T14:54:45;3.58;;;0.52;;
28531;SDS011;15738;44.860;10.066;2022-08-19T14:57:31;1.85;;;0.60;;
28531;SDS011;15738;44.860;10.066;2022-08-19T15:00:17;0.50;;;0.40;;
28531;SDS011;15738;44.860;10.066;2022-08-19T15:03:03;3.38;;;0.63;;
28531;SDS011;15738;44.860;10.066;2022-08-19T15:05:48;0.77;;;0.40;;
28531;SDS011;15738;44.860;10.066;2022-08-19T15:08:35;1.50;;;0.50;;
28531;SDS011;15738;44.860;10.066;2022-08-19T15:11:25;2.75;;;0.40;;
28531;SDS011;15738;44.860;10.066;2022-08-19T15:14:12;1.58;;;0.50;;
28531;SDS011;15738;44.860;10.066;2022-08-19T15:17:01;1.63;;;0.60;;
28531;SDS011;15738;44.860;10.066;2022-08-19T15:19:47;3.22;;;0.50;;
28531;SDS011;15738;44.860;10.066;2022-08-19T15:22:33;1.38;;;0.60;;
28531;SDS011;15738;44.860;10.066;2022-08-19T15:25:20;1.85;;;0.60;;
28531;SDS011;15738;44.860;10.066;2022-08-19T15:28:06;2.55;;;0.70;;
28531;SDS011;15738;44.860;10.066;2022-08-19T15:30:52;1.33;;;0.50;;
28531;SDS011;15738;44.860;10.066;2022-08-19T15:33:39;0.90;;;0.50;;
28531;SDS011;15738;44.860;10.066;2022-08-19T15:36:28;0.90;;;0.60;;
28531;SDS011;15738;44.860;10.066;2022-08-19T15:39:14;1.02;;;0.40;;
28531;SDS011;15738;44.860;10.066;2022-08-19T15:42:00;1.45;;;0.52;;
28531;SDS011;15738;44.860;10.066;2022-08-19T15:44:47;0.95;;;0.82;;
28531;SDS011;15738;44.860;10.066;2022-08-19T15:47:34;0.77;;;0.50;;
28531;SDS011;15738;44.860;10.066;2022-08-19T15:50:20;2.70;;;0.70;;
28531;SDS011;15738;44.860;10.066;2022-08-19T15:53:07;1.85;;;0.70;;
28531;SDS011;15738;44.860;10.066;2022-08-19T15:55:54;1.70;;;0.60;;
28531;SDS011;15738;44.860;10.066;2022-08-19T15:58:40;2.33;;;0.65;;
28531;SDS011;15738;44.860;10.066;2022-08-19T16:01:45;1.77;;;0.45;;
28531;SDS011;15738;44.860;10.066;2022-08-19T16:04:54;1.73;;;0.80;;
28531;SDS011;15738;44.860;10.066;2022-08-19T16:07:59;1.48;;;0.55;;
28531;SDS011;15738;44.860;10.066;2022-08-19T16:10:45;1.42;;;0.80;;
28531;SDS011;15738;44.860;10.066;2022-08-19T16:13:31;4.72;;;0.82;;
28531;SDS011;15738;44.860;10.066;2022-08-19T16:16:18;2.08;;;0.70;;
28531;SDS011;15738;44.860;10.066;2022-08-19T16:19:06;7.97;;;1.10;;
28531;SDS011;15738;44.860;10.066;2022-08-19T16:21:56;1.75;;;0.77;;
28531;SDS011;15738;44.860;10.066;2022-08-19T16:24:42;2.35;;;0.90;;
28531;SDS011;15738;44.860;10.066;2022-08-19T16:27:28;3.97;;;0.80;;
28531;SDS011;15738;44.860;10.066;2022-08-19T16:30:14;1.23;;;0.60;;
28531;SDS011;15738;44.860;10.066;2022-08-19T16:33:00;1.45;;;0.90;;
28531;SDS011;15738;44.860;10.066;2022-08-19T16:35:46;2.25;;;0.85;;
28531;SDS011;15738;44.860;10.066;2022-08-19T16:38:44;4.40;;;0.80;;
28531;SDS011;15738;44.860;10.066;2022-08-19T16:41:30;1.08;;;0.70;;
28531;SDS011;15738;44.860;10.066;2022-08-19T16:44:16;1.92;;;0.85;;
28531;SDS011;15738;44.860;10.066;2022-08-19T16:47:03;1.02;;;0.77;;